Time;durP1;ratioP1;P1;durP2;ratioP2;P2;SDS_P1;SDS_P2;PMS_P1;PMS_P2;Temp;Humidity;BMP_temperature;BMP_pressure;BME280_temperature;BME280_humidity;BME280_pressure;Samples;Min_cycle;Max_cycle;Signal;HPM_P1;HPM_P2
2023/05/16 00:01:38;;;;;;;4.50;0.80;;;9.70;99.90;;;;;;5058174;28;20460;-74
2023/05/16 00:04:04;;;;;;;5.32;1.10;;;9.60;99.90;;;;;;5042720;28;20045;-75
2023/05/16 00:06:30;;;;;;;1.08;0.60;;;9.60;99.90;;;;;;5041962;28;20032;-75
2023/05/16 00:08:56;;;;;;;4.68;1.38;;;9.60;99.90;;;;;;5034349;28;20037;-75
2023/05/16 00:11:22;;;;;;;7.32;1.02;;;9.60;99.90;;;;;;5056098;28;20053;-75
2023/05/16 00:13:48;;;;;;;3.90;1.15;;;9.60;99.90;;;;;;5058046;28;20270;-74
2023/05/16 00:16:13;;;;;;;2.45;0.75;;;9.50;99.90;;;;;;5053742;28;20044;-74
2023/05/16 00:18:39;;;;;;;4.60;0.85;;;9.50;99.90;;;;;;5060025;28;20051;-74
2023/05/16 00:21:05;;;;;;;5.13;1.00;;;9.50;99.90;;;;;;5058933;28;20036;-75
2023/05/16 00:23:31;;;;;;;3.83;0.80;;;9.50;99.90;;;;;;5058204;28;20213;-75
2023/05/16 00:25:57;;;;;;;3.05;0.60;;;9.50;99.90;;;;;;5060527;28;20565;-74
2023/05/16 00:28:22;;;;;;;6.38;0.90;;;9.40;99.90;;;;;;5056986;28;20155;-75
2023/05/16 00:30:48;;;;;;;1.95;0.70;;;9.40;99.90;;;;;;5054749;28;20486;-75
2023/05/16 00:33:14;;;;;;;2.80;0.60;;;9.40;99.90;;;;;;5060081;28;20432;-75
2023/05/16 00:35:40;;;;;;;3.05;0.93;;;9.40;99.90;;;;;;5057724;28;20414;-74
2023/05/16 00:38:05;;;;;;;11.02;0.90;;;9.40;99.90;;;;;;5059840;28;20404;-74
2023/05/16 00:40:32;;;;;;;8.20;0.73;;;9.40;99.90;;;;;;5059386;28;20553;-74
2023/05/16 00:42:58;;;;;;;3.72;0.65;;;9.30;99.90;;;;;;5062309;28;20052;-74
2023/05/16 00:45:23;;;;;;;3.50;1.10;;;9.40;99.90;;;;;;5054744;28;20068;-74
2023/05/16 00:47:50;;;;;;;5.20;0.60;;;9.30;99.90;;;;;;5062001;28;20382;-74
2023/05/16 00:50:16;;;;;;;7.25;0.75;;;9.30;99.90;;;;;;5042675;28;20067;-75
2023/05/16 00:52:42;;;;;;;3.53;0.50;;;9.30;99.90;;;;;;5055275;28;20040;-74
2023/05/16 00:55:11;;;;;;;3.95;0.68;;;9.20;99.90;;;;;;5059193;28;20047;-75
2023/05/16 00:57:37;;;;;;;1.42;0.57;;;9.20;99.90;;;;;;5057016;28;20094;-74
2023/05/16 01:00:05;;;;;;;1.33;0.43;;;9.20;99.90;;;;;;5052641;28;20048;-74
2023/05/16 01:02:33;;;;;;;5.07;0.93;;;9.20;99.90;;;;;;5055365;28;20041;-74
2023/05/16 01:04:59;;;;;;;3.03;0.65;;;9.10;99.90;;;;;;5059478;28;20044;-74
2023/05/16 01:07:25;;;;;;;3.05;0.55;;;9.10;99.90;;;;;;5056926;28;20089;-75
2023/05/16 01:09:51;;;;;;;1.65;0.50;;;9.20;99.90;;;;;;5060177;28;20371;-75
2023/05/16 01:12:35;;;;;;;3.67;0.65;;;9.10;99.90;;;;;;5050753;28;20571;-74
2023/05/16 01:15:26;;;;;;;4.80;0.63;;;9.10;99.90;;;;;;5058431;28;20049;-74
2023/05/16 01:18:28;;;;;;;4.10;0.50;;;9.10;99.90;;;;;;5055687;28;20497;-75
2023/05/16 01:21:07;;;;;;;1.85;0.38;;;9.10;99.90;;;;;;5057029;28;20379;-75
2023/05/16 01:23:41;;;;;;;2.40;0.60;;;9.10;99.90;;;;;;5055441;28;20171;-75
2023/05/16 01:26:20;;;;;;;3.00;0.50;;;9.10;99.90;;;;;;5056950;28;20532;-75
2023/05/16 01:28:46;;;;;;;3.03;0.65;;;9.00;99.90;;;;;;5056732;28;20098;-75
2023/05/16 01:31:12;;;;;;;2.22;0.75;;;9.00;99.90;;;;;;5041888;28;20547;-75
2023/05/16 01:33:38;;;;;;;1.92;0.70;;;9.00;99.90;;;;;;5054520;28;20036;-75
2023/05/16 01:36:29;;;;;;;3.05;0.38;;;9.00;99.90;;;;;;5056615;28;20049;-75
2023/05/16 01:39:06;;;;;;;3.60;0.88;;;8.90;99.90;;;;;;5057554;28;20130;-74
2023/05/16 01:42:02;;;;;;;2.50;0.60;;;8.90;99.90;;;;;;5059819;28;20067;-74
2023/05/16 01:44:43;;;;;;;1.95;0.47;;;8.90;99.90;;;;;;5059427;28;20040;-75
2023/05/16 01:47:12;;;;;;;3.38;0.75;;;8.90;99.90;;;;;;5051678;28;20044;-75
2023/05/16 01:49:53;;;;;;;4.85;0.88;;;8.80;99.90;;;;;;5056217;28;20033;-74
2023/05/16 01:52:28;;;;;;;4.28;0.80;;;8.80;99.90;;;;;;5054425;28;20044;-74
2023/05/16 01:54:56;;;;;;;4.00;0.70;;;8.70;99.90;;;;;;5053082;28;20095;-75
2023/05/16 01:57:25;;;;;;;6.15;0.60;;;8.70;99.90;;;;;;5058723;28;20360;-74
2023/05/16 01:59:52;;;;;;;1.25;0.40;;;8.70;99.90;;;;;;5039927;28;20037;-74
2023/05/16 02:02:18;;;;;;;6.03;0.60;;;8.60;99.90;;;;;;5072420;28;20048;-75
2023/05/16 02:04:44;;;;;;;2.83;0.50;;;8.60;99.90;;;;;;5056507;28;20090;-74
2023/05/16 02:07:10;;;;;;;3.35;0.63;;;8.60;99.90;;;;;;5054594;28;20045;-74
2023/05/16 02:09:36;;;;;;;2.08;0.60;;;8.60;99.90;;;;;;5058033;28;20040;-75
2023/05/16 02:12:01;;;;;;;3.28;0.60;;;8.60;99.90;;;;;;5051398;28;20494;-75
2023/05/16 02:14:27;;;;;;;1.38;0.52;;;8.50;99.90;;;;;;5056188;28;20041;-74
2023/05/16 02:16:54;;;;;;;3.38;0.50;;;8.50;99.90;;;;;;5086794;28;20043;-74
2023/05/16 02:19:19;;;;;;;1.08;0.50;;;8.50;99.90;;;;;;5048935;28;20047;-74
2023/05/16 02:21:45;;;;;;;2.47;1.17;;;8.50;99.90;;;;;;5050553;28;20127;-74
2023/05/16 02:24:10;;;;;;;2.88;0.52;;;8.40;99.90;;;;;;5088751;28;20123;-75
2023/05/16 02:26:36;;;;;;;2.90;0.70;;;8.50;99.90;;;;;;5054614;28;20052;-74
2023/05/16 02:29:02;;;;;;;4.38;0.60;;;8.40;99.90;;;;;;5051771;28;20222;-75
2023/05/16 02:31:31;;;;;;;3.95;0.95;;;8.40;99.90;;;;;;5056277;28;20397;-75
2023/05/16 02:33:58;;;;;;;3.50;0.60;;;8.40;99.90;;;;;;5055136;28;20037;-75
2023/05/16 02:36:24;;;;;;;4.45;0.35;;;8.40;99.90;;;;;;5050283;28;20028;-74
2023/05/16 02:38:50;;;;;;;4.15;0.35;;;8.40;99.90;;;;;;5053049;28;20123;-75
2023/05/16 02:41:16;;;;;;;2.95;1.05;;;8.40;99.90;;;;;;5053668;28;20037;-74
2023/05/16 02:43:43;;;;;;;3.40;0.50;;;8.40;99.90;;;;;;5055034;28;20931;-74
2023/05/16 02:46:30;;;;;;;3.70;0.95;;;8.40;99.90;;;;;;5049708;28;20102;-75
2023/05/16 02:48:56;;;;;;;1.00;0.40;;;8.40;99.90;;;;;;5075024;28;20032;-74
2023/05/16 02:51:23;;;;;;;2.08;0.45;;;8.30;99.90;;;;;;5058845;28;20051;-74
2023/05/16 02:53:49;;;;;;;3.20;0.50;;;8.30;99.90;;;;;;5075406;28;20536;-75
2023/05/16 02:56:14;;;;;;;3.38;0.50;;;8.30;99.90;;;;;;5059015;28;20037;-74
2023/05/16 02:58:40;;;;;;;5.80;0.50;;;8.30;99.90;;;;;;5061334;28;20036;-74
2023/05/16 03:01:06;;;;;;;2.83;0.50;;;8.30;99.90;;;;;;5063546;28;20047;-74
2023/05/16 03:03:34;;;;;;;2.33;0.40;;;8.30;99.90;;;;;;5060497;28;20029;-74
2023/05/16 03:06:00;;;;;;;1.77;0.40;;;8.30;99.90;;;;;;5059042;28;20064;-75
2023/05/16 03:08:25;;;;;;;2.63;0.50;;;8.30;99.90;;;;;;5060839;28;20033;-74
2023/05/16 03:10:51;;;;;;;2.22;0.50;;;8.30;99.90;;;;;;5057783;28;20045;-75
2023/05/16 03:13:17;;;;;;;0.93;0.38;;;8.30;99.90;;;;;;5074325;28;20048;-74
2023/05/16 03:15:42;;;;;;;4.78;0.55;;;8.40;99.90;;;;;;5053567;28;20041;-74
2023/05/16 03:18:08;;;;;;;3.85;0.68;;;8.30;99.90;;;;;;5092047;28;20823;-75
2023/05/16 03:20:33;;;;;;;2.50;0.40;;;8.30;99.90;;;;;;5059343;28;20086;-75
2023/05/16 03:22:59;;;;;;;3.60;0.50;;;8.30;99.90;;;;;;5057954;28;20036;-75
2023/05/16 03:25:25;;;;;;;6.18;1.10;;;8.30;99.90;;;;;;5061071;28;20091;-74
2023/05/16 03:27:51;;;;;;;1.38;0.50;;;8.30;99.90;;;;;;5058085;28;20350;-74
2023/05/16 03:30:18;;;;;;;7.15;0.43;;;8.30;99.90;;;;;;5056504;28;20071;-75
2023/05/16 03:32:44;;;;;;;3.70;0.30;;;8.20;99.90;;;;;;5071618;28;20075;-75
2023/05/16 03:35:10;;;;;;;2.88;0.47;;;8.20;99.90;;;;;;5057081;28;20505;-74
2023/05/16 03:37:37;;;;;;;1.08;0.40;;;8.20;99.90;;;;;;5059668;28;20029;-75
2023/05/16 03:40:06;;;;;;;0.98;0.40;;;8.20;99.90;;;;;;5062595;28;20037;-75
2023/05/16 03:42:31;;;;;;;1.55;0.55;;;8.10;99.90;;;;;;5056132;28;20033;-74
2023/05/16 03:44:57;;;;;;;1.95;0.70;;;8.10;99.90;;;;;;5061423;28;20036;-74
2023/05/16 03:47:23;;;;;;;7.13;0.85;;;8.10;99.90;;;;;;5060059;28;20524;-75
2023/05/16 03:49:49;;;;;;;3.78;0.60;;;8.10;99.90;;;;;;5055886;28;20056;-75
2023/05/16 03:52:14;;;;;;;2.80;0.55;;;8.10;99.90;;;;;;5059434;28;20043;-75
2023/05/16 03:54:40;;;;;;;6.22;1.52;;;8.10;99.90;;;;;;5056442;28;20043;-74
2023/05/16 03:57:06;;;;;;;3.03;0.50;;;8.10;99.90;;;;;;5058963;28;20095;-75
2023/05/16 03:59:33;;;;;;;3.60;0.60;;;8.00;99.90;;;;;;5053435;28;20071;-74
2023/05/16 04:01:58;;;;;;;1.20;0.28;;;8.10;99.90;;;;;;5034708;28;20397;-75
2023/05/16 04:04:24;;;;;;;2.78;0.55;;;8.00;99.90;;;;;;5073910;28;20052;-74
2023/05/16 04:06:50;;;;;;;3.40;0.40;;;8.00;99.90;;;;;;5089880;28;20041;-74
2023/05/16 04:09:16;;;;;;;1.77;0.43;;;8.00;99.90;;;;;;5055444;28;20059;-74
2023/05/16 04:11:42;;;;;;;2.17;0.57;;;8.00;99.90;;;;;;5056773;28;20259;-74
2023/05/16 04:14:07;;;;;;;2.67;0.73;;;8.00;99.90;;;;;;5076107;28;21473;-74
2023/05/16 04:16:33;;;;;;;2.97;0.52;;;8.00;99.90;;;;;;5056921;28;20032;-74
2023/05/16 04:18:58;;;;;;;3.47;0.50;;;8.00;99.90;;;;;;5058745;28;20628;-74
2023/05/16 04:21:24;;;;;;;2.53;0.60;;;8.10;99.90;;;;;;5052698;28;20040;-75
2023/05/16 04:23:50;;;;;;;2.33;0.60;;;8.20;99.90;;;;;;5058210;28;20071;-74
2023/05/16 04:26:15;;;;;;;3.13;0.60;;;8.20;99.90;;;;;;5037076;28;20072;-74
2023/05/16 04:28:41;;;;;;;2.67;1.08;;;8.20;99.90;;;;;;5035820;28;20477;-75
2023/05/16 04:31:07;;;;;;;2.22;0.60;;;8.30;99.90;;;;;;5057108;28;20037;-75
2023/05/16 04:33:33;;;;;;;2.72;0.68;;;8.30;99.90;;;;;;5059645;28;20133;-75
2023/05/16 04:35:59;;;;;;;3.80;0.93;;;8.30;99.90;;;;;;5058220;28;20519;-74
2023/05/16 04:38:25;;;;;;;2.80;0.50;;;8.30;99.90;;;;;;5052343;28;20087;-74
2023/05/16 04:40:50;;;;;;;3.00;0.55;;;8.30;99.90;;;;;;5040452;28;20032;-75
2023/05/16 04:43:17;;;;;;;5.35;0.70;;;8.40;99.90;;;;;;5053042;28;20483;-74
2023/05/16 04:45:43;;;;;;;2.50;0.50;;;8.40;99.90;;;;;;5059508;28;20119;-75
2023/05/16 04:48:09;;;;;;;2.08;0.52;;;8.40;99.90;;;;;;5057885;28;20533;-74
2023/05/16 04:50:35;;;;;;;6.60;0.95;;;8.40;99.90;;;;;;5058389;28;20052;-74
2023/05/16 04:53:01;;;;;;;3.28;0.50;;;8.40;99.90;;;;;;5039912;28;20084;-75
2023/05/16 04:55:26;;;;;;;3.65;0.90;;;8.40;99.90;;;;;;5059873;28;20071;-74
2023/05/16 04:57:52;;;;;;;2.35;0.70;;;8.40;99.90;;;;;;5058223;28;20063;-75
2023/05/16 05:00:18;;;;;;;5.28;0.90;;;8.40;99.90;;;;;;5060247;28;20123;-75
2023/05/16 05:02:44;;;;;;;1.35;0.50;;;8.40;99.90;;;;;;5037730;28;20040;-75
2023/05/16 05:05:10;;;;;;;0.60;0.32;;;8.50;99.90;;;;;;5040750;28;20186;-74
2023/05/16 05:07:35;;;;;;;1.63;0.50;;;8.50;99.90;;;;;;5056468;28;20041;-75
2023/05/16 05:10:01;;;;;;;5.15;0.63;;;8.50;99.90;;;;;;5056409;28;20037;-75
2023/05/16 05:12:27;;;;;;;3.70;0.98;;;8.60;99.90;;;;;;5086753;28;20047;-74
2023/05/16 05:14:53;;;;;;;1.40;0.38;;;8.60;99.90;;;;;;5056464;28;20071;-74
2023/05/16 05:17:20;;;;;;;4.30;0.60;;;8.60;99.90;;;;;;5050136;28;20358;-75
2023/05/16 05:19:47;;;;;;;4.18;0.60;;;8.60;99.90;;;;;;5056236;28;20052;-75
2023/05/16 05:22:13;;;;;;;6.20;0.82;;;8.60;99.90;;;;;;5044216;28;20536;-74
2023/05/16 05:24:38;;;;;;;1.75;0.80;;;8.60;99.90;;;;;;5058564;28;20871;-74
2023/05/16 05:27:04;;;;;;;2.50;0.77;;;8.60;99.90;;;;;;5056130;28;20044;-74
2023/05/16 05:29:30;;;;;;;2.17;0.50;;;8.60;99.90;;;;;;5056974;28;20032;-74
2023/05/16 05:31:55;;;;;;;2.80;0.60;;;8.60;99.90;;;;;;5054613;28;20059;-74
2023/05/16 05:34:21;;;;;;;2.90;0.80;;;8.60;99.90;;;;;;5053360;28;20037;-75
2023/05/16 05:36:47;;;;;;;2.10;0.70;;;8.50;99.90;;;;;;5057590;28;20049;-75
2023/05/16 05:39:12;;;;;;;2.28;0.50;;;8.60;99.90;;;;;;5052139;28;20045;-75
2023/05/16 05:41:38;;;;;;;3.83;0.70;;;8.60;99.90;;;;;;5053575;28;20267;-74
2023/05/16 05:44:05;;;;;;;1.35;0.52;;;8.60;99.90;;;;;;5041862;28;20497;-75
2023/05/16 05:46:31;;;;;;;2.28;1.00;;;8.50;99.90;;;;;;5056359;28;20121;-75
2023/05/16 05:48:57;;;;;;;1.95;0.77;;;8.60;99.90;;;;;;5059969;28;20033;-75
2023/05/16 05:51:23;;;;;;;1.83;0.73;;;8.60;99.90;;;;;;5058211;28;20051;-74
2023/05/16 05:53:49;;;;;;;1.83;0.50;;;8.60;99.90;;;;;;5051786;28;20101;-75
2023/05/16 05:56:15;;;;;;;3.80;0.55;;;8.70;99.90;;;;;;5052750;28;21232;-75
2023/05/16 05:58:41;;;;;;;3.33;1.02;;;8.70;99.90;;;;;;5055360;28;20033;-75
2023/05/16 06:01:07;;;;;;;5.70;0.65;;;8.80;99.90;;;;;;5055985;28;20051;-75
2023/05/16 06:03:32;;;;;;;5.13;0.80;;;8.80;99.90;;;;;;5054221;28;20041;-75
2023/05/16 06:05:58;;;;;;;2.50;0.70;;;9.00;99.90;;;;;;5056475;28;20040;-75
2023/05/16 06:08:23;;;;;;;5.53;0.88;;;9.00;99.90;;;;;;5050972;28;20047;-75
2023/05/16 06:10:49;;;;;;;4.57;0.50;;;9.10;99.90;;;;;;5057938;28;20033;-75
2023/05/16 06:13:15;;;;;;;3.97;0.52;;;9.10;99.90;;;;;;5056971;28;20230;-75
2023/05/16 06:15:40;;;;;;;2.10;0.50;;;9.20;99.90;;;;;;5057972;28;20036;-75
2023/05/16 06:18:06;;;;;;;2.13;0.90;;;9.30;99.90;;;;;;5040581;28;20105;-75
2023/05/16 06:20:31;;;;;;;1.95;0.57;;;9.40;99.90;;;;;;5054918;28;20160;-74
2023/05/16 06:22:57;;;;;;;3.63;0.85;;;9.40;99.90;;;;;;5060583;28;20043;-75
2023/05/16 06:25:23;;;;;;;4.95;0.73;;;9.70;99.90;;;;;;5059193;28;20336;-75
2023/05/16 06:27:48;;;;;;;6.93;0.57;;;9.90;99.90;;;;;;5086814;28;20093;-74
2023/05/16 06:30:14;;;;;;;1.88;0.65;;;10.60;99.90;;;;;;5094420;28;20056;-75
2023/05/16 06:32:40;;;;;;;5.40;0.68;;;11.50;99.90;;;;;;5060269;28;20494;-75
2023/05/16 06:35:07;;;;;;;2.30;1.02;;;12.30;99.90;;;;;;5065259;28;20048;-75
2023/05/16 06:37:33;;;;;;;5.95;0.77;;;13.00;99.90;;;;;;5059768;28;20578;-75
2023/05/16 06:39:59;;;;;;;2.60;0.68;;;13.60;99.90;;;;;;5066985;28;20145;-76
2023/05/16 06:42:24;;;;;;;2.45;0.65;;;13.70;99.90;;;;;;5057488;28;20147;-76
2023/05/16 06:44:50;;;;;;;1.80;0.52;;;13.50;99.90;;;;;;5060513;28;20426;-75
2023/05/16 06:47:15;;;;;;;2.55;0.50;;;13.10;99.90;;;;;;5056516;28;20048;-75
2023/05/16 06:49:41;;;;;;;2.00;0.43;;;12.60;99.90;;;;;;5088230;28;20044;-75
2023/05/16 06:52:07;;;;;;;1.10;0.40;;;12.20;99.90;;;;;;5058498;28;20452;-75
2023/05/16 06:54:32;;;;;;;0.88;0.40;;;11.80;99.90;;;;;;5057484;28;20375;-75
2023/05/16 06:56:58;;;;;;;2.63;0.30;;;11.40;99.90;;;;;;5088576;28;20593;-75
2023/05/16 06:59:23;;;;;;;5.20;0.38;;;11.30;99.90;;;;;;5060369;28;20105;-75
2023/05/16 07:01:49;;;;;;;3.72;0.60;;;11.20;99.90;;;;;;5054410;28;20597;-75
2023/05/16 07:04:15;;;;;;;2.60;0.30;;;11.10;99.90;;;;;;5054620;28;20056;-75
2023/05/16 07:06:40;;;;;;;1.85;0.80;;;11.00;99.90;;;;;;5056871;28;20032;-75
2023/05/16 07:09:06;;;;;;;0.90;0.38;;;10.90;99.90;;;;;;5056119;28;20040;-75
2023/05/16 07:11:31;;;;;;;3.13;0.40;;;10.80;99.90;;;;;;5055446;28;20048;-75
2023/05/16 07:13:57;;;;;;;2.03;0.20;;;10.70;99.90;;;;;;5056497;28;20078;-75
2023/05/16 07:16:23;;;;;;;1.25;0.15;;;10.70;99.90;;;;;;5057775;28;20394;-74
2023/05/16 07:18:49;;;;;;;3.42;0.25;;;10.60;99.90;;;;;;5054294;28;20037;-75
2023/05/16 07:21:14;;;;;;;2.47;0.30;;;10.60;99.90;;;;;;5058311;28;20053;-75
2023/05/16 07:23:40;;;;;;;2.58;0.50;;;10.60;99.90;;;;;;5056953;28;20544;-75
2023/05/16 07:26:06;;;;;;;2.95;0.40;;;10.60;99.90;;;;;;5057142;28;20047;-74
2023/05/16 07:28:31;;;;;;;4.55;0.40;;;10.70;99.90;;;;;;5059102;28;20286;-75
2023/05/16 07:31:00;;;;;;;1.25;0.25;;;10.70;99.90;;;;;;5061560;28;20037;-75
2023/05/16 07:33:26;;;;;;;1.02;0.30;;;10.70;99.90;;;;;;5051893;28;20044;-75
2023/05/16 07:35:52;;;;;;;1.85;0.30;;;10.70;99.90;;;;;;5061272;28;20037;-75
2023/05/16 07:38:20;;;;;;;3.08;0.38;;;10.80;99.90;;;;;;5056798;28;20040;-75
2023/05/16 07:40:45;;;;;;;2.22;0.22;;;10.80;99.90;;;;;;5056503;28;20460;-75
2023/05/16 07:43:11;;;;;;;2.28;0.47;;;10.80;99.90;;;;;;5055457;28;20070;-74
2023/05/16 07:45:37;;;;;;;0.43;0.20;;;10.90;99.90;;;;;;5059757;28;20098;-75
2023/05/16 07:48:03;;;;;;;1.42;0.20;;;11.00;99.90;;;;;;5061160;28;20049;-75
2023/05/16 07:50:28;;;;;;;0.70;0.40;;;11.00;99.90;;;;;;5059928;28;20036;-75
2023/05/16 07:52:54;;;;;;;4.35;0.35;;;11.00;99.90;;;;;;5055584;28;20037;-75
2023/05/16 07:55:21;;;;;;;5.28;0.45;;;10.90;99.90;;;;;;5057355;28;20050;-75
2023/05/16 07:57:47;;;;;;;1.80;0.30;;;10.90;99.90;;;;;;5055975;28;20032;-75
2023/05/16 08:00:13;;;;;;;2.95;0.70;;;10.90;99.90;;;;;;5048328;28;20491;-75
2023/05/16 08:02:39;;;;;;;1.88;0.40;;;10.90;99.90;;;;;;5052171;28;20037;-75
2023/05/16 08:05:06;;;;;;;2.47;0.40;;;11.00;99.90;;;;;;5052086;28;20044;-75
2023/05/16 08:07:32;;;;;;;5.40;0.60;;;11.00;99.90;;;;;;5055352;28;20469;-74
2023/05/16 08:09:58;;;;;;;5.28;0.82;;;11.10;99.90;;;;;;5057467;28;20068;-76
2023/05/16 08:12:24;;;;;;;1.30;0.22;;;11.10;99.90;;;;;;5053533;28;20740;-76
2023/05/16 08:14:49;;;;;;;0.70;0.32;;;11.10;99.90;;;;;;5051823;28;20052;-76
2023/05/16 08:17:15;;;;;;;0.70;0.28;;;11.20;99.90;;;;;;5055480;28;20033;-76
2023/05/16 08:19:41;;;;;;;2.00;0.30;;;11.20;99.60;;;;;;5061499;28;20094;-75
2023/05/16 08:22:07;;;;;;;1.90;0.30;;;11.30;99.40;;;;;;5037546;28;20036;-76
2023/05/16 08:24:33;;;;;;;3.42;0.40;;;11.30;99.50;;;;;;5071055;28;20052;-76
2023/05/16 08:26:59;;;;;;;3.50;0.55;;;11.40;99.90;;;;;;5054990;28;20059;-76
2023/05/16 08:29:25;;;;;;;3.00;0.60;;;11.50;99.90;;;;;;5057710;28;21954;-75
2023/05/16 08:31:51;;;;;;;0.95;0.30;;;11.50;99.90;;;;;;5090283;28;20048;-76
2023/05/16 08:34:17;;;;;;;5.15;0.50;;;11.50;99.90;;;;;;5057664;28;20032;-76
2023/05/16 08:36:42;;;;;;;5.25;0.65;;;11.60;99.90;;;;;;5058707;28;20352;-75
2023/05/16 08:39:10;;;;;;;2.95;0.55;;;11.50;99.90;;;;;;5057516;28;20383;-76
2023/05/16 08:41:36;;;;;;;1.67;0.30;;;11.50;99.90;;;;;;5059079;28;20039;-75
2023/05/16 08:44:02;;;;;;;2.58;0.80;;;11.40;99.90;;;;;;5087561;28;20090;-75
2023/05/16 08:46:29;;;;;;;1.92;0.40;;;11.40;99.90;;;;;;5032298;28;20050;-76
2023/05/16 08:48:59;;;;;;;5.10;0.60;;;11.40;99.90;;;;;;5053174;28;20123;-76
2023/05/16 08:51:26;;;;;;;1.63;0.25;;;11.50;97.50;;;;;;5058050;28;20448;-75
2023/05/16 08:54:21;;;;;;;1.25;0.40;;;11.50;98.60;;;;;;5056058;28;20037;-75
2023/05/16 08:56:49;;;;;;;1.73;0.38;;;11.70;97.40;;;;;;5049850;28;20053;-75
2023/05/16 08:59:15;;;;;;;4.40;0.43;;;11.70;98.70;;;;;;5058475;28;20035;-75
2023/05/16 09:01:41;;;;;;;3.03;0.65;;;11.70;98.90;;;;;;5057719;28;20036;-76
2023/05/16 09:04:08;;;;;;;4.50;0.95;;;11.70;98.60;;;;;;5059317;28;20036;-75
2023/05/16 09:06:37;;;;;;;5.60;0.60;;;11.60;98.30;;;;;;5060270;28;20071;-76
2023/05/16 09:09:03;;;;;;;2.65;0.50;;;11.60;97.80;;;;;;5053284;28;20047;-77
2023/05/16 09:11:29;;;;;;;1.02;0.50;;;11.60;97.90;;;;;;5060696;28;20036;-76
2023/05/16 09:13:55;;;;;;;1.13;0.40;;;11.60;97.90;;;;;;5062609;28;20220;-76
2023/05/16 09:16:20;;;;;;;0.55;0.20;;;11.60;98.20;;;;;;5059177;28;20037;-76
2023/05/16 09:18:58;;;;;;;1.13;0.35;;;11.60;98.40;;;;;;5089729;28;20070;-75
2023/05/16 09:21:32;;;;;;;1.02;0.35;;;11.60;97.60;;;;;;5054967;28;20036;-76
2023/05/16 09:24:08;;;;;;;2.22;0.30;;;11.60;97.20;;;;;;5058157;28;20039;-75
2023/05/16 09:26:35;;;;;;;4.43;0.50;;;11.60;98.00;;;;;;5055282;28;20048;-76
2023/05/16 09:29:01;;;;;;;5.00;0.52;;;11.70;98.30;;;;;;5057859;28;20052;-75
2023/05/16 09:31:36;;;;;;;2.72;0.28;;;11.80;97.50;;;;;;5057428;28;20047;-76
2023/05/16 09:34:03;;;;;;;2.05;0.30;;;11.70;97.80;;;;;;5053573;28;20032;-76
2023/05/16 09:36:31;;;;;;;1.10;0.70;;;11.70;97.90;;;;;;5061428;28;20041;-75
2023/05/16 09:38:56;;;;;;;2.38;0.30;;;11.70;98.00;;;;;;5050101;28;20128;-76
2023/05/16 09:41:22;;;;;;;1.85;0.30;;;11.70;98.30;;;;;;5060054;28;20158;-76
2023/05/16 09:43:47;;;;;;;1.70;0.50;;;11.80;98.60;;;;;;5058271;28;20105;-75
2023/05/16 09:46:14;;;;;;;3.92;0.30;;;11.90;98.00;;;;;;5060029;28;20051;-76
2023/05/16 09:48:50;;;;;;;1.00;0.28;;;11.90;97.50;;;;;;5059763;28;20116;-76
2023/05/16 09:51:21;;;;;;;3.03;0.70;;;11.90;95.90;;;;;;5060118;28;20068;-75
2023/05/16 09:53:46;;;;;;;2.90;0.20;;;12.00;96.30;;;;;;5060785;28;20482;-75
2023/05/16 09:56:13;;;;;;;0.60;0.17;;;12.00;97.10;;;;;;5055981;28;20316;-75
2023/05/16 09:58:41;;;;;;;0.55;0.10;;;12.10;96.20;;;;;;5037753;28;21199;-75
2023/05/16 10:01:08;;;;;;;3.55;0.40;;;12.10;95.00;;;;;;5058323;28;20407;-75
2023/05/16 10:03:35;;;;;;;1.02;0.30;;;12.20;94.80;;;;;;5057560;28;20036;-74
2023/05/16 10:06:02;;;;;;;1.77;0.40;;;12.20;94.90;;;;;;5076098;28;20036;-75
2023/05/16 10:08:31;;;;;;;4.93;0.60;;;12.20;94.40;;;;;;5058086;28;20033;-75
2023/05/16 10:10:56;;;;;;;2.72;0.38;;;12.10;92.20;;;;;;5061070;28;20482;-75
2023/05/16 10:13:27;;;;;;;1.75;0.30;;;12.10;94.20;;;;;;5063710;28;20041;-75
2023/05/16 10:15:55;;;;;;;2.00;0.30;;;11.90;94.70;;;;;;5065340;28;20509;-75
2023/05/16 10:18:21;;;;;;;1.75;0.38;;;11.90;95.00;;;;;;5064190;28;20083;-75
2023/05/16 10:20:51;;;;;;;1.58;0.20;;;12.00;96.00;;;;;;5065194;28;20033;-75
2023/05/16 10:23:21;;;;;;;3.45;0.55;;;12.00;96.00;;;;;;5058645;28;20118;-75
2023/05/16 10:25:48;;;;;;;2.13;0.40;;;12.10;96.10;;;;;;5063607;28;20039;-74
2023/05/16 10:28:15;;;;;;;0.73;0.20;;;12.20;95.80;;;;;;5063150;28;20055;-75
2023/05/16 10:30:43;;;;;;;1.85;0.40;;;12.30;94.10;;;;;;5046884;28;20052;-74
2023/05/16 10:33:11;;;;;;;1.75;0.47;;;12.30;94.00;;;;;;5063245;28;20036;-75
2023/05/16 10:35:38;;;;;;;2.40;0.40;;;12.40;94.40;;;;;;5066339;28;20032;-75
2023/05/16 10:38:05;;;;;;;3.25;0.68;;;12.40;94.20;;;;;;5062380;28;20439;-75
2023/05/16 10:40:32;;;;;;;3.30;0.52;;;12.40;93.70;;;;;;5068024;28;20559;-74
2023/05/16 10:43:00;;;;;;;1.08;0.30;;;12.40;94.30;;;;;;5064471;28;20504;-74
2023/05/16 10:45:25;;;;;;;2.30;0.52;;;12.30;92.90;;;;;;5067471;28;20135;-74
2023/05/16 10:47:56;;;;;;;5.38;0.75;;;12.30;94.10;;;;;;5049480;28;20131;-74
2023/05/16 10:50:42;;;;;;;1.50;0.50;;;12.20;94.30;;;;;;5058465;28;20043;-74
2023/05/16 10:53:32;;;;;;;3.30;0.40;;;12.20;92.70;;;;;;5065973;28;20659;-75
2023/05/16 10:56:00;;;;;;;3.17;0.60;;;12.10;89.90;;;;;;5049636;28;20406;-74
2023/05/16 10:58:33;;;;;;;1.63;0.25;;;12.00;93.90;;;;;;5061653;28;20093;-74
2023/05/16 11:01:15;;;;;;;0.95;0.30;;;12.10;93.90;;;;;;5060826;28;20043;-74
2023/05/16 11:03:59;;;;;;;2.05;0.30;;;12.10;93.40;;;;;;5061259;28;20432;-74
2023/05/16 11:06:27;;;;;;;4.43;0.40;;;12.20;93.10;;;;;;5091505;28;20251;-74
2023/05/16 11:09:12;;;;;;;0.75;0.20;;;12.30;94.30;;;;;;5058889;28;20512;-75
2023/05/16 11:11:57;;;;;;;2.15;0.43;;;12.40;91.40;;;;;;5061906;28;20126;-74
2023/05/16 11:14:25;;;;;;;1.08;0.40;;;12.50;92.80;;;;;;5060717;28;20517;-74
2023/05/16 11:16:58;;;;;;;1.40;0.57;;;12.70;92.90;;;;;;5058377;28;21774;-74
2023/05/16 11:19:43;;;;;;;1.73;0.20;;;12.80;93.00;;;;;;5058746;28;20044;-74
2023/05/16 11:22:22;;;;;;;0.68;0.30;;;12.80;80.30;;;;;;5058101;28;20040;-74
2023/05/16 11:25:09;;;;;;;1.55;0.30;;;12.90;90.60;;;;;;5059730;28;20083;-74
2023/05/16 11:27:41;;;;;;;1.35;0.30;;;12.90;74.40;;;;;;5057942;28;20052;-75
2023/05/16 11:30:12;;;;;;;3.80;0.50;;;12.90;87.30;;;;;;5061689;28;20548;-74
2023/05/16 11:32:40;;;;;;;1.67;0.30;;;13.00;91.20;;;;;;5057062;28;20335;-75
2023/05/16 11:35:08;;;;;;;0.85;0.32;;;13.00;92.10;;;;;;5036946;28;20049;-74
2023/05/16 11:37:40;;;;;;;0.93;0.35;;;13.00;91.80;;;;;;5065044;28;20405;-74
2023/05/16 11:40:08;;;;;;;2.70;0.40;;;13.00;90.50;;;;;;5066479;28;20040;-77
2023/05/16 11:42:36;;;;;;;1.92;0.40;;;13.00;88.60;;;;;;5059824;28;20459;-75
2023/05/16 11:45:06;;;;;;;3.42;0.47;;;13.00;89.20;;;;;;5094719;28;20071;-75
2023/05/16 11:47:32;;;;;;;2.00;0.60;;;13.00;85.60;;;;;;5087452;28;20032;-75
2023/05/16 11:49:58;;;;;;;1.77;0.55;;;13.00;87.90;;;;;;5064555;28;20094;-74
2023/05/16 11:52:23;;;;;;;3.40;0.70;;;13.00;88.50;;;;;;5040755;28;20036;-74
2023/05/16 11:54:49;;;;;;;2.28;0.40;;;13.00;87.70;;;;;;5055715;28;20059;-74
2023/05/16 11:57:15;;;;;;;1.92;0.50;;;13.00;90.30;;;;;;5062460;28;20037;-75
2023/05/16 11:59:41;;;;;;;1.27;0.57;;;13.10;89.50;;;;;;5060182;28;20076;-75
2023/05/16 12:02:08;;;;;;;2.63;0.77;;;13.10;90.10;;;;;;5062319;28;20079;-74
2023/05/16 12:04:37;;;;;;;5.18;0.68;;;13.20;89.90;;;;;;5068376;28;20453;-74
2023/05/16 12:07:04;;;;;;;3.58;0.80;;;13.10;89.20;;;;;;5069516;28;20427;-74
2023/05/16 12:09:30;;;;;;;2.35;0.57;;;13.00;88.90;;;;;;5070424;28;20086;-74
2023/05/16 12:11:56;;;;;;;3.60;0.60;;;12.90;89.60;;;;;;5062801;28;20036;-75
2023/05/16 12:14:22;;;;;;;1.83;0.60;;;13.00;91.20;;;;;;5067833;28;20482;-74
2023/05/16 12:16:48;;;;;;;4.25;0.47;;;12.90;91.70;;;;;;5047616;28;20037;-74
2023/05/16 12:19:14;;;;;;;1.42;0.60;;;12.90;91.00;;;;;;5075038;28;20039;-75
2023/05/16 12:21:40;;;;;;;2.42;0.52;;;12.80;91.60;;;;;;5062578;28;20074;-75
2023/05/16 12:24:10;;;;;;;2.38;0.73;;;12.70;91.40;;;;;;5064147;28;20032;-74
2023/05/16 12:26:39;;;;;;;2.13;0.60;;;12.70;91.80;;;;;;5048961;28;20102;-75
2023/05/16 12:29:05;;;;;;;2.60;0.45;;;12.80;92.10;;;;;;5061749;28;20052;-75
2023/05/16 12:31:41;;;;;;;2.42;0.68;;;12.70;92.50;;;;;;5058322;28;20032;-75
2023/05/16 12:34:15;;;;;;;2.53;0.60;;;12.90;91.90;;;;;;5065301;28;20390;-75
2023/05/16 12:36:41;;;;;;;2.75;0.63;;;12.90;92.40;;;;;;5060411;28;20041;-75
2023/05/16 12:39:11;;;;;;;1.73;0.50;;;13.00;92.20;;;;;;5063189;28;20055;-75
2023/05/16 12:41:43;;;;;;;2.67;0.75;;;12.90;92.10;;;;;;5064380;28;20033;-74
2023/05/16 12:44:16;;;;;;;2.40;0.60;;;12.80;93.70;;;;;;5074286;28;20036;-74
2023/05/16 12:46:47;;;;;;;4.47;1.27;;;12.60;95.10;;;;;;5058659;28;20040;-75
2023/05/16 12:49:13;;;;;;;8.77;0.93;;;12.50;96.00;;;;;;5096605;28;20162;-75
2023/05/16 12:51:47;;;;;;;3.30;0.90;;;12.50;96.20;;;;;;5036504;28;20242;-75
2023/05/16 12:54:13;;;;;;;3.08;0.70;;;12.50;96.60;;;;;;5061015;28;20037;-75
2023/05/16 12:56:40;;;;;;;3.92;0.73;;;12.50;96.50;;;;;;5096458;28;20059;-75